N.dadayli — TCCW7 — position and weather

sailwx.info

Track history (hours):
 
Tides and Currents Weather Stations Pressure Air Temp Water Temp Dewpoint Dewpoint Depression Visibility Wind Speed Wind Dir Waves Ship Positions

N.dadayli

Last reported at 2014-Nov-24 20:08 UTC. Time now 2014-Nov-27 01:45 UTC.
Position N 38°28' W 009°28'.

Length 101 m; draft 5.8 m.

Type: Ship. MMSI: 271000768.

Date/timePositionNaut miles runAvg speedWind from/ knotsBaromVisibWave heightAir tempDewpointWater temp
2014-Nov-24 20:08N 38°28' W 009°28'6 9.7
2014-Nov-24 19:33N 38°25' W 009°22'10 9.7
2014-Nov-24 18:33N 38°22' W 009°11'1111.4
2014-Nov-24 17:33N 38°27' W 008°58'6 5.5
2014-Nov-24 16:33N 38°31' W 008°53'0 0.0
2014-Nov-24 15:30N 38°31' W 008°53'0 0.0
2014-Nov-24 14:24N 38°31' W 008°53'0 0.0
2014-Nov-24 13:21N 38°31' W 008°53'0 0.0
2014-Nov-24 12:27N 38°31' W 008°53'0 0.0
2014-Nov-24 11:30N 38°31' W 008°53'0 0.0
2014-Nov-24 10:33N 38°31' W 008°53'0 0.0
2014-Nov-24 09:33N 38°31' W 008°53'0 0.0
2014-Nov-24 08:33N 38°31' W 008°53'0 0.0
2014-Nov-24 07:30N 38°31' W 008°53'0 0.0
2014-Nov-24 06:33N 38°31' W 008°53'0 0.0
2014-Nov-24 00:12N 38°31' W 008°53'0 0.0
2014-Nov-23 23:33N 38°31' W 008°53'0 0.0
2014-Nov-23 21:30N 38°31' W 008°53'0 0.0
2014-Nov-23 20:33N 38°31' W 008°53'0 0.0
2014-Nov-23 19:30N 38°31' W 008°53'0 0.0
2014-Nov-23 18:30N 38°31' W 008°53'0 0.0
2014-Nov-23 16:30N 38°31' W 008°53'0 0.4
2014-Nov-23 15:33N 38°31' W 008°53'8 8.2
2014-Nov-23 14:33N 38°25' W 009°01'8 8.5
2014-Nov-23 13:33N 38°17' W 009°04'9 9.0
2014-Nov-23 12:33N 38°08' W 009°06'9 8.8
2014-Nov-23 11:33N 37°59' W 009°07'9 8.8
2014-Nov-23 10:33N 37°51' W 009°09'9 9.1
2014-Nov-23 09:33N 37°42' W 009°11'9 9.1
2014-Nov-23 08:33N 37°33' W 009°13'20 8.7
2014-Nov-23 06:17N 37°13' W 009°17'45 7.9
2014-Nov-23 00:33N 36°38' W 008°42'1110.3
2014-Nov-22 23:30N 36°35' W 008°29'14510.9
2014-Nov-22 10:17N 35°58' W 005°35'7 9.8
2014-Nov-22 09:32N 36°00' W 005°27'8 7.9
2014-Nov-22 08:33N 36°02' W 005°18'22210.1
2014-Nov-21 10:33N 37°18' W 000°57'1111.5
2014-Nov-21 09:33N 37°26' W 000°46'2311.6
2014-Nov-21 07:33N 37°43' W 000°26'13711.4
2014-Nov-20 19:30N 39°35' E 001°16'1010.9
2014-Nov-20 18:33N 39°43' E 001°24'1111.3
2014-Nov-20 17:33N 39°52' E 001°33'1211.7
2014-Nov-20 16:33N 40°01' E 001°42'1211.7
2014-Nov-20 15:33N 40°10' E 001°52'1211.7
2014-Nov-20 14:33N 40°19' E 002°01'1111.6
2014-Nov-20 13:33N 40°28' E 002°11'1111.3
2014-Nov-20 12:33N 40°37' E 002°20'1111.2
2014-Nov-20 11:33N 40°46' E 002°29'1111.2
2014-Nov-20 10:33N 40°55' E 002°38'1212.0
2014-Nov-20 09:33N 41°05' E 002°47'1211.8
2014-Nov-20 08:29N 41°15' E 002°58'1211.4
2014-Nov-20 07:24N 41°24' E 003°08'11611.6
2014-Nov-19 21:19N 42°56' E 004°44'1311.7
2014-Nov-19 20:15N 43°06' E 004°55'811.0
2014-Nov-19 19:33N 43°12' E 005°01'1111.3
2014-Nov-19 18:34N 43°23' E 004°56'3 3.1
2014-Nov-19 17:32N 43°26' E 004°54'0 0.0
2014-Nov-19 16:32N 43°26' E 004°54'0 0.0
2014-Nov-19 15:32N 43°26' E 004°54'0 0.0
2014-Nov-19 14:29N 43°26' E 004°54'0 0.0
2014-Nov-19 13:32N 43°26' E 004°54'0 0.0
2014-Nov-19 12:32N 43°26' E 004°54'0 0.0
2014-Nov-19 11:32N 43°26' E 004°54'0 0.0
2014-Nov-19 10:32N 43°26' E 004°54'0 0.0
2014-Nov-19 09:32N 43°26' E 004°54'0 0.0
2014-Nov-19 08:32N 43°26' E 004°54'0 0.0
2014-Nov-19 07:32N 43°26' E 004°54'0 0.0
2014-Nov-19 06:32N 43°26' E 004°54'0 0.0
2014-Nov-19 05:32N 43°26' E 004°54'0 0.0
2014-Nov-19 04:32N 43°26' E 004°54'0 0.0
2014-Nov-19 03:29N 43°26' E 004°54'0 0.0
2014-Nov-19 02:32N 43°26' E 004°54'0 0.0
2014-Nov-19 01:32N 43°26' E 004°54'0 0.0
2014-Nov-19 00:32N 43°26' E 004°54'0 0.0
2014-Nov-18 23:32N 43°26' E 004°54'0 0.0
2014-Nov-18 22:32N 43°26' E 004°54'0 0.0
2014-Nov-18 21:32N 43°26' E 004°54'0 0.0
2014-Nov-18 20:32N 43°26' E 004°54'0 0.0
2014-Nov-18 19:32N 43°26' E 004°54'0 0.0
2014-Nov-18 18:32N 43°26' E 004°54'0 0.0
2014-Nov-18 17:32N 43°26' E 004°54'0 0.0
2014-Nov-18 16:32N 43°26' E 004°54'0 0.0
2014-Nov-18 15:32N 43°26' E 004°54'1 1.1
2014-Nov-18 14:34N 43°25' E 004°53'9 9.2
2014-Nov-18 13:34N 43°17' E 005°00'10 9.7
2014-Nov-18 12:34N 43°08' E 004°58'1211.6
2014-Nov-18 11:34N 42°59' E 004°47'1211.4
2014-Nov-18 10:33N 42°51' E 004°36'1111.6
2014-Nov-18 09:33N 42°42' E 004°25'2411.6
2014-Nov-18 07:28N 42°25' E 004°03'7111.8
2014-Nov-18 01:24N 41°36' E 002°53'1412.1
2014-Nov-18 00:15N 41°28' E 002°38'  
Track history (hours):
 
Tides and Currents Weather Stations Pressure Air Temp Water Temp Dewpoint Dewpoint Depression Visibility Wind Speed Wind Dir Waves Ship Positions

N.dadayli

Last reported at 2014-Nov-24 20:08 UTC. Time now 2014-Nov-27 01:45 UTC.
Position N 38°28' W 009°28'.

Length 101 m; draft 5.8 m.

Type: Ship. MMSI: 271000768.

Date/timePositionNaut miles runAvg speedWind from/ knotsBaromVisibWave heightAir tempDewpointWater temp
2014-Nov-24 20:08N 38°28' W 009°28'6 9.7
2014-Nov-24 19:33N 38°25' W 009°22'10 9.7
2014-Nov-24 18:33N 38°22' W 009°11'1111.4
2014-Nov-24 17:33N 38°27' W 008°58'6 5.5
2014-Nov-24 16:33N 38°31' W 008°53'0 0.0
2014-Nov-24 15:30N 38°31' W 008°53'0 0.0
2014-Nov-24 14:24N 38°31' W 008°53'0 0.0
2014-Nov-24 13:21N 38°31' W 008°53'0 0.0
2014-Nov-24 12:27N 38°31' W 008°53'0 0.0
2014-Nov-24 11:30N 38°31' W 008°53'0 0.0
2014-Nov-24 10:33N 38°31' W 008°53'0 0.0
2014-Nov-24 09:33N 38°31' W 008°53'0 0.0
2014-Nov-24 08:33N 38°31' W 008°53'0 0.0
2014-Nov-24 07:30N 38°31' W 008°53'0 0.0
2014-Nov-24 06:33N 38°31' W 008°53'0 0.0
2014-Nov-24 00:12N 38°31' W 008°53'0 0.0
2014-Nov-23 23:33N 38°31' W 008°53'0 0.0
2014-Nov-23 21:30N 38°31' W 008°53'0 0.0
2014-Nov-23 20:33N 38°31' W 008°53'0 0.0
2014-Nov-23 19:30N 38°31' W 008°53'0 0.0
2014-Nov-23 18:30N 38°31' W 008°53'0 0.0
2014-Nov-23 16:30N 38°31' W 008°53'0 0.4
2014-Nov-23 15:33N 38°31' W 008°53'8 8.2
2014-Nov-23 14:33N 38°25' W 009°01'8 8.5
2014-Nov-23 13:33N 38°17' W 009°04'9 9.0
2014-Nov-23 12:33N 38°08' W 009°06'9 8.8
2014-Nov-23 11:33N 37°59' W 009°07'9 8.8
2014-Nov-23 10:33N 37°51' W 009°09'9 9.1
2014-Nov-23 09:33N 37°42' W 009°11'9 9.1
2014-Nov-23 08:33N 37°33' W 009°13'20 8.7
2014-Nov-23 06:17N 37°13' W 009°17'45 7.9
2014-Nov-23 00:33N 36°38' W 008°42'1110.3
2014-Nov-22 23:30N 36°35' W 008°29'14510.9
2014-Nov-22 10:17N 35°58' W 005°35'7 9.8
2014-Nov-22 09:32N 36°00' W 005°27'8 7.9
2014-Nov-22 08:33N 36°02' W 005°18'22210.1
2014-Nov-21 10:33N 37°18' W 000°57'1111.5
2014-Nov-21 09:33N 37°26' W 000°46'2311.6
2014-Nov-21 07:33N 37°43' W 000°26'13711.4
2014-Nov-20 19:30N 39°35' E 001°16'1010.9
2014-Nov-20 18:33N 39°43' E 001°24'1111.3
2014-Nov-20 17:33N 39°52' E 001°33'1211.7
2014-Nov-20 16:33N 40°01' E 001°42'1211.7
2014-Nov-20 15:33N 40°10' E 001°52'1211.7
2014-Nov-20 14:33N 40°19' E 002°01'1111.6
2014-Nov-20 13:33N 40°28' E 002°11'1111.3
2014-Nov-20 12:33N 40°37' E 002°20'1111.2
2014-Nov-20 11:33N 40°46' E 002°29'1111.2
2014-Nov-20 10:33N 40°55' E 002°38'1212.0
2014-Nov-20 09:33N 41°05' E 002°47'1211.8
2014-Nov-20 08:29N 41°15' E 002°58'1211.4
2014-Nov-20 07:24N 41°24' E 003°08'11611.6
2014-Nov-19 21:19N 42°56' E 004°44'1311.7
2014-Nov-19 20:15N 43°06' E 004°55'811.0
2014-Nov-19 19:33N 43°12' E 005°01'1111.3
2014-Nov-19 18:34N 43°23' E 004°56'3 3.1
2014-Nov-19 17:32N 43°26' E 004°54'0 0.0
2014-Nov-19 16:32N 43°26' E 004°54'0 0.0
2014-Nov-19 15:32N 43°26' E 004°54'0 0.0
2014-Nov-19 14:29N 43°26' E 004°54'0 0.0
2014-Nov-19 13:32N 43°26' E 004°54'0 0.0
2014-Nov-19 12:32N 43°26' E 004°54'0 0.0
2014-Nov-19 11:32N 43°26' E 004°54'0 0.0
2014-Nov-19 10:32N 43°26' E 004°54'0 0.0
2014-Nov-19 09:32N 43°26' E 004°54'0 0.0
2014-Nov-19 08:32N 43°26' E 004°54'0 0.0
2014-Nov-19 07:32N 43°26' E 004°54'0 0.0
2014-Nov-19 06:32N 43°26' E 004°54'0 0.0
2014-Nov-19 05:32N 43°26' E 004°54'0 0.0
2014-Nov-19 04:32N 43°26' E 004°54'0 0.0
2014-Nov-19 03:29N 43°26' E 004°54'0 0.0
2014-Nov-19 02:32N 43°26' E 004°54'0 0.0
2014-Nov-19 01:32N 43°26' E 004°54'0 0.0
2014-Nov-19 00:32N 43°26' E 004°54'0 0.0
2014-Nov-18 23:32N 43°26' E 004°54'0 0.0
2014-Nov-18 22:32N 43°26' E 004°54'0 0.0
2014-Nov-18 21:32N 43°26' E 004°54'0 0.0
2014-Nov-18 20:32N 43°26' E 004°54'0 0.0
2014-Nov-18 19:32N 43°26' E 004°54'0 0.0
2014-Nov-18 18:32N 43°26' E 004°54'0 0.0
2014-Nov-18 17:32N 43°26' E 004°54'0 0.0
2014-Nov-18 16:32N 43°26' E 004°54'0 0.0
2014-Nov-18 15:32N 43°26' E 004°54'1 1.1
2014-Nov-18 14:34N 43°25' E 004°53'9 9.2
2014-Nov-18 13:34N 43°17' E 005°00'10 9.7
2014-Nov-18 12:34N 43°08' E 004°58'1211.6
2014-Nov-18 11:34N 42°59' E 004°47'1211.4
2014-Nov-18 10:33N 42°51' E 004°36'1111.6
2014-Nov-18 09:33N 42°42' E 004°25'2411.6
2014-Nov-18 07:28N 42°25' E 004°03'7111.8
2014-Nov-18 01:24N 41°36' E 002°53'1412.1
2014-Nov-18 00:15N 41°28' E 002°38'  

Dump ship's entire track history